COL540 EDDV-EDDP
Flight info
| Callsign | COL540 |
|---|---|
| Flight time | 0h 35m |
| Altitude | 21000 |
| Route | POVEL3Y POVEL Z94 KENIG T959 KOJEC KOJEC1R |
| Aircraft | A320/M-SDE3FGHIRWY/LB1 |
Departure
| Time | 2026-05-06 21:47 |
|---|---|
| Airport | Hannover Airport (EDDV) |
Arrival
| Time | 2026-05-06 22:22 |
|---|---|
| Airport | Leipzig/Halle Airport (EDDP) |
| Time | Latitude | Longitude | Altitude | Speed | Heading |
|---|---|---|---|---|---|
| 2026-05-06 21:21 | 52.45814 | 9.69557 | 191 ft | 0 kts | 52° |
| 2026-05-06 21:35 | 52.45814 | 9.69556 | 191 ft | 1 kts | 52° |
| 2026-05-06 21:36 | 52.45800 | 9.69526 | 202 ft | 4 kts | 52° |
| 2026-05-06 21:36 | 52.45787 | 9.69497 | 205 ft | 4 kts | 49° |
| 2026-05-06 21:36 | 52.45767 | 9.69468 | 197 ft | 4 kts | 29° |
| 2026-05-06 21:36 | 52.45744 | 9.69454 | 205 ft | 2 kts | 4° |
| 2026-05-06 21:37 | 52.45741 | 9.69454 | 194 ft | 0 kts | 3° |
| 2026-05-06 21:39 | 52.45743 | 9.69454 | 191 ft | 2 kts | 2° |
| 2026-05-06 21:39 | 52.45760 | 9.69410 | 201 ft | 8 kts | 278° |
| 2026-05-06 21:39 | 52.45762 | 9.69305 | 195 ft | 9 kts | 277° |
| 2026-05-06 21:39 | 52.45801 | 9.69216 | 191 ft | 11 kts | 318° |
| 2026-05-06 21:40 | 52.45872 | 9.69129 | 202 ft | 14 kts | 324° |
| 2026-05-06 21:40 | 52.45953 | 9.69022 | 199 ft | 15 kts | 304° |
| 2026-05-06 21:40 | 52.45977 | 9.68864 | 200 ft | 15 kts | 307° |
| 2026-05-06 21:40 | 52.46058 | 9.68756 | 202 ft | 16 kts | 326° |
| 2026-05-06 21:41 | 52.46148 | 9.68638 | 197 ft | 17 kts | 319° |
| 2026-05-06 21:41 | 52.46244 | 9.68516 | 196 ft | 17 kts | 324° |
| 2026-05-06 21:41 | 52.46330 | 9.68413 | 198 ft | 14 kts | 321° |
| 2026-05-06 21:41 | 52.46402 | 9.68322 | 197 ft | 12 kts | 323° |
| 2026-05-06 21:42 | 52.46472 | 9.68233 | 191 ft | 14 kts | 321° |
| 2026-05-06 21:42 | 52.46523 | 9.68099 | 194 ft | 15 kts | 280° |
| 2026-05-06 21:42 | 52.46529 | 9.67915 | 196 ft | 17 kts | 273° |
| 2026-05-06 21:42 | 52.46535 | 9.67709 | 202 ft | 19 kts | 273° |
| 2026-05-06 21:43 | 52.46542 | 9.67482 | 191 ft | 21 kts | 273° |
| 2026-05-06 21:43 | 52.46549 | 9.67238 | 199 ft | 22 kts | 272° |
| 2026-05-06 21:43 | 52.46555 | 9.66986 | 200 ft | 23 kts | 272° |
| 2026-05-06 21:43 | 52.46562 | 9.66725 | 191 ft | 23 kts | 273° |
| 2026-05-06 21:44 | 52.46570 | 9.66457 | 191 ft | 25 kts | 272° |
| 2026-05-06 21:44 | 52.46577 | 9.66174 | 198 ft | 25 kts | 272° |
| 2026-05-06 21:44 | 52.46585 | 9.65907 | 191 ft | 22 kts | 272° |
| 2026-05-06 21:44 | 52.46591 | 9.65645 | 191 ft | 22 kts | 273° |
| 2026-05-06 21:45 | 52.46598 | 9.65438 | 191 ft | 16 kts | 272° |
| 2026-05-06 21:45 | 52.46628 | 9.65297 | 190 ft | 11 kts | 338° |
| 2026-05-06 21:45 | 52.46705 | 9.65277 | 189 ft | 12 kts | 1° |
| 2026-05-06 21:45 | 52.46801 | 9.65302 | 183 ft | 16 kts | 26° |
| 2026-05-06 21:46 | 52.46824 | 9.65412 | 182 ft | 11 kts | 89° |
| 2026-05-06 21:46 | 52.46817 | 9.65557 | 181 ft | 21 kts | 94° |
| 2026-05-06 21:46 | 52.46801 | 9.66220 | 192 ft | 92 kts | 92° |
| 2026-05-06 21:46 | 52.46763 | 9.67591 | 193 ft | 146 kts | 92° |
| 2026-05-06 21:47 | 52.46730 | 9.69359 | 625 ft | 154 kts | 90° |
| 2026-05-06 21:47 | 52.46709 | 9.71141 | 1245 ft | 162 kts | 89° |
| 2026-05-06 21:47 | 52.46678 | 9.73023 | 1877 ft | 166 kts | 91° |
| 2026-05-06 21:47 | 52.46616 | 9.75007 | 2305 ft | 185 kts | 90° |
| 2026-05-06 21:48 | 52.46541 | 9.77239 | 2590 ft | 208 kts | 91° |
| 2026-05-06 21:48 | 52.46459 | 9.79648 | 3359 ft | 211 kts | 91° |
| 2026-05-06 21:48 | 52.46378 | 9.82051 | 4240 ft | 211 kts | 91° |
| 2026-05-06 21:48 | 52.46300 | 9.84445 | 5002 ft | 216 kts | 92° |
| 2026-05-06 21:49 | 52.46222 | 9.86927 | 5749 ft | 220 kts | 92° |
| 2026-05-06 21:49 | 52.46081 | 9.89449 | 6463 ft | 225 kts | 104° |
| 2026-05-06 21:49 | 52.45478 | 9.91887 | 6985 ft | 242 kts | 120° |
| 2026-05-06 21:49 | 52.44586 | 9.94389 | 7349 ft | 266 kts | 120° |
| 2026-05-06 21:50 | 52.43628 | 9.97078 | 7983 ft | 278 kts | 120° |
| 2026-05-06 21:50 | 52.42646 | 9.99838 | 8769 ft | 283 kts | 120° |
| 2026-05-06 21:50 | 52.41647 | 10.02652 | 9569 ft | 288 kts | 121° |
| 2026-05-06 21:50 | 52.40627 | 10.05520 | 10231 ft | 299 kts | 121° |
| 2026-05-06 21:51 | 52.39554 | 10.08534 | 10502 ft | 322 kts | 121° |
| 2026-05-06 21:51 | 52.38400 | 10.11776 | 11044 ft | 334 kts | 122° |
| 2026-05-06 21:51 | 52.37225 | 10.15083 | 11774 ft | 339 kts | 122° |
| 2026-05-06 21:51 | 52.36032 | 10.18433 | 12532 ft | 342 kts | 123° |
| 2026-05-06 21:52 | 52.34824 | 10.21820 | 13252 ft | 346 kts | 123° |
| 2026-05-06 21:52 | 52.33603 | 10.25242 | 13929 ft | 350 kts | 123° |
| 2026-05-06 21:52 | 52.32369 | 10.28701 | 14583 ft | 355 kts | 123° |
| 2026-05-06 21:52 | 52.31119 | 10.32200 | 15212 ft | 359 kts | 123° |
| 2026-05-06 21:53 | 52.29853 | 10.35745 | 15837 ft | 363 kts | 123° |
| 2026-05-06 21:53 | 52.28588 | 10.39277 | 16437 ft | 367 kts | 123° |
| 2026-05-06 21:53 | 52.27289 | 10.42890 | 17036 ft | 371 kts | 123° |
| 2026-05-06 21:53 | 52.25978 | 10.46535 | 17622 ft | 375 kts | 123° |
| 2026-05-06 21:54 | 52.24769 | 10.49891 | 18154 ft | 378 kts | 124° |
| 2026-05-06 21:54 | 52.23445 | 10.53556 | 18702 ft | 382 kts | 124° |
| 2026-05-06 21:54 | 52.22103 | 10.57269 | 19264 ft | 385 kts | 124° |
| 2026-05-06 21:54 | 52.20755 | 10.60995 | 19799 ft | 389 kts | 124° |
| 2026-05-06 21:55 | 52.19372 | 10.64810 | 20330 ft | 392 kts | 124° |
| 2026-05-06 21:55 | 52.17978 | 10.68644 | 20745 ft | 395 kts | 124° |
| 2026-05-06 21:55 | 52.16579 | 10.72493 | 20843 ft | 391 kts | 124° |
| 2026-05-06 21:55 | 52.15211 | 10.76260 | 20862 ft | 390 kts | 124° |
| 2026-05-06 21:56 | 52.13698 | 10.80017 | 20859 ft | 402 kts | 132° |
| 2026-05-06 21:56 | 52.11744 | 10.83251 | 20858 ft | 401 kts | 144° |
| 2026-05-06 21:56 | 52.09435 | 10.85748 | 20859 ft | 397 kts | 155° |
| 2026-05-06 21:56 | 52.06995 | 10.87856 | 20863 ft | 397 kts | 155° |
| 2026-05-06 21:57 | 52.04589 | 10.89931 | 20858 ft | 397 kts | 155° |
| 2026-05-06 21:57 | 52.02150 | 10.92037 | 20851 ft | 397 kts | 155° |
| 2026-05-06 21:57 | 51.99707 | 10.94148 | 20850 ft | 397 kts | 155° |
| 2026-05-06 21:57 | 51.97272 | 10.96254 | 20851 ft | 397 kts | 155° |
| 2026-05-06 21:58 | 51.94837 | 10.98356 | 20850 ft | 396 kts | 155° |
| 2026-05-06 21:58 | 51.92411 | 11.00444 | 20852 ft | 395 kts | 155° |
| 2026-05-06 21:58 | 51.89982 | 11.02533 | 20852 ft | 395 kts | 155° |
| 2026-05-06 21:58 | 51.87553 | 11.04622 | 20850 ft | 395 kts | 155° |
| 2026-05-06 21:59 | 51.85125 | 11.06704 | 20848 ft | 395 kts | 155° |
| 2026-05-06 21:59 | 51.82728 | 11.08753 | 20846 ft | 395 kts | 155° |
| 2026-05-06 21:59 | 51.80295 | 11.10833 | 20846 ft | 395 kts | 155° |
| 2026-05-06 21:59 | 51.77866 | 11.12910 | 20847 ft | 395 kts | 155° |
| 2026-05-06 22:00 | 51.75437 | 11.14984 | 20847 ft | 395 kts | 155° |
| 2026-05-06 22:00 | 51.73002 | 11.17063 | 20848 ft | 395 kts | 155° |
| 2026-05-06 22:00 | 51.70570 | 11.19132 | 20848 ft | 395 kts | 155° |
| 2026-05-06 22:00 | 51.68139 | 11.21196 | 20848 ft | 395 kts | 155° |
| 2026-05-06 22:01 | 51.65713 | 11.23254 | 20848 ft | 395 kts | 155° |
| 2026-05-06 22:01 | 51.63319 | 11.25436 | 20845 ft | 397 kts | 149° |
| 2026-05-06 22:01 | 51.61239 | 11.28302 | 20843 ft | 402 kts | 136° |
| 2026-05-06 22:01 | 51.59524 | 11.31880 | 20841 ft | 405 kts | 129° |
| 2026-05-06 22:02 | 51.57891 | 11.35576 | 20839 ft | 406 kts | 129° |
| 2026-05-06 22:02 | 51.56258 | 11.39271 | 20839 ft | 406 kts | 129° |
| 2026-05-06 22:02 | 51.54656 | 11.43010 | 20837 ft | 408 kts | 123° |
| 2026-05-06 22:02 | 51.53613 | 11.47268 | 20836 ft | 414 kts | 104° |
| 2026-05-06 22:03 | 51.53450 | 11.51896 | 20833 ft | 419 kts | 85° |
| 2026-05-06 22:03 | 51.54212 | 11.56424 | 20832 ft | 422 kts | 65° |
| 2026-05-06 22:03 | 51.55764 | 11.60411 | 20830 ft | 422 kts | 54° |
| 2026-05-06 22:03 | 51.57468 | 11.64186 | 20779 ft | 424 kts | 54° |
| 2026-05-06 22:04 | 51.59201 | 11.68019 | 20454 ft | 422 kts | 54° |
| 2026-05-06 22:04 | 51.60906 | 11.71847 | 20203 ft | 421 kts | 57° |
| 2026-05-06 22:04 | 51.62215 | 11.76023 | 19755 ft | 416 kts | 71° |
| 2026-05-06 22:04 | 51.62866 | 11.80516 | 19287 ft | 409 kts | 85° |
| 2026-05-06 22:05 | 51.63085 | 11.85048 | 18811 ft | 404 kts | 87° |
| 2026-05-06 22:05 | 51.63292 | 11.89477 | 18340 ft | 400 kts | 87° |
| 2026-05-06 22:05 | 51.63509 | 11.93981 | 17840 ft | 397 kts | 87° |
| 2026-05-06 22:05 | 51.63724 | 11.98352 | 17270 ft | 397 kts | 87° |
| 2026-05-06 22:06 | 51.63943 | 12.02777 | 16696 ft | 396 kts | 86° |
| 2026-05-06 22:06 | 51.64162 | 12.07196 | 16121 ft | 396 kts | 86° |
| 2026-05-06 22:06 | 51.64377 | 12.11608 | 15544 ft | 395 kts | 87° |
| 2026-05-06 22:06 | 51.64585 | 12.16018 | 14970 ft | 394 kts | 87° |
| 2026-05-06 22:07 | 51.64789 | 12.20406 | 14390 ft | 393 kts | 87° |
| 2026-05-06 22:07 | 51.64981 | 12.24778 | 13812 ft | 391 kts | 89° |
| 2026-05-06 22:07 | 51.64629 | 12.29059 | 13240 ft | 384 kts | 112° |
| 2026-05-06 22:07 | 51.63270 | 12.32595 | 12669 ft | 375 kts | 137° |
| 2026-05-06 22:08 | 51.61138 | 12.34843 | 12099 ft | 365 kts | 163° |
| 2026-05-06 22:08 | 51.58679 | 12.35356 | 11519 ft | 355 kts | 188° |
| 2026-05-06 22:08 | 51.56401 | 12.34051 | 11049 ft | 345 kts | 216° |
| 2026-05-06 22:08 | 51.54825 | 12.31285 | 10690 ft | 334 kts | 243° |
| 2026-05-06 22:09 | 51.54163 | 12.27791 | 10408 ft | 324 kts | 262° |
| 2026-05-06 22:09 | 51.54083 | 12.24240 | 10151 ft | 309 kts | 273° |
| 2026-05-06 22:09 | 51.54370 | 12.20932 | 9901 ft | 291 kts | 282° |
| 2026-05-06 22:09 | 51.54752 | 12.17845 | 9719 ft | 282 kts | 276° |
| 2026-05-06 22:10 | 51.54844 | 12.14700 | 9594 ft | 281 kts | 268° |
| 2026-05-06 22:10 | 51.54700 | 12.11580 | 9471 ft | 280 kts | 263° |
| 2026-05-06 22:10 | 51.54454 | 12.08484 | 9345 ft | 279 kts | 262° |
| 2026-05-06 22:10 | 51.54202 | 12.05399 | 9220 ft | 279 kts | 263° |
| 2026-05-06 22:11 | 51.53975 | 12.02301 | 9094 ft | 279 kts | 264° |
| 2026-05-06 22:11 | 51.53778 | 11.99206 | 8877 ft | 278 kts | 265° |
| 2026-05-06 22:11 | 51.53606 | 11.96138 | 8603 ft | 273 kts | 265° |
| 2026-05-06 22:11 | 51.53447 | 11.93123 | 8283 ft | 270 kts | 265° |
| 2026-05-06 22:12 | 51.53299 | 11.90181 | 7962 ft | 266 kts | 265° |
| 2026-05-06 22:12 | 51.53154 | 11.87227 | 7635 ft | 264 kts | 265° |
| 2026-05-06 22:12 | 51.53009 | 11.84290 | 7238 ft | 264 kts | 265° |
| 2026-05-06 22:12 | 51.52864 | 11.81356 | 6834 ft | 264 kts | 265° |
| 2026-05-06 22:13 | 51.52715 | 11.78415 | 6432 ft | 264 kts | 265° |
| 2026-05-06 22:13 | 51.52568 | 11.75486 | 6031 ft | 263 kts | 265° |
| 2026-05-06 22:13 | 51.52301 | 11.72590 | 5630 ft | 262 kts | 251° |
| 2026-05-06 22:13 | 51.51401 | 11.70102 | 5377 ft | 256 kts | 227° |
| 2026-05-06 22:14 | 51.49997 | 11.68476 | 5254 ft | 252 kts | 203° |
| 2026-05-06 22:14 | 51.48295 | 11.67906 | 5132 ft | 252 kts | 178° |
| 2026-05-06 22:14 | 51.46594 | 11.68517 | 5003 ft | 252 kts | 153° |
| 2026-05-06 22:14 | 51.45198 | 11.70181 | 4840 ft | 251 kts | 130° |
| 2026-05-06 22:15 | 51.44097 | 11.72334 | 4773 ft | 251 kts | 128° |
| 2026-05-06 22:15 | 51.42993 | 11.74497 | 4718 ft | 251 kts | 128° |
| 2026-05-06 22:15 | 51.41930 | 11.76707 | 4659 ft | 250 kts | 120° |
| 2026-05-06 22:15 | 51.41289 | 11.79229 | 4605 ft | 242 kts | 101° |
| 2026-05-06 22:16 | 51.41174 | 11.81844 | 4558 ft | 234 kts | 84° |
| 2026-05-06 22:16 | 51.41303 | 11.84381 | 4469 ft | 223 kts | 84° |
| 2026-05-06 22:16 | 51.41427 | 11.86809 | 4370 ft | 214 kts | 84° |
| 2026-05-06 22:16 | 51.41542 | 11.89104 | 4305 ft | 199 kts | 84° |
| 2026-05-06 22:17 | 51.41650 | 11.91265 | 4087 ft | 191 kts | 84° |
| 2026-05-06 22:17 | 51.41754 | 11.93349 | 3865 ft | 183 kts | 84° |
| 2026-05-06 22:17 | 51.41851 | 11.95314 | 3615 ft | 170 kts | 84° |
| 2026-05-06 22:17 | 51.41940 | 11.97119 | 3414 ft | 154 kts | 83° |
| 2026-05-06 22:18 | 51.42020 | 11.98756 | 3208 ft | 143 kts | 83° |
| 2026-05-06 22:18 | 51.42097 | 12.00314 | 3022 ft | 138 kts | 83° |
| 2026-05-06 22:18 | 51.42171 | 12.01811 | 2844 ft | 135 kts | 82° |
| 2026-05-06 22:18 | 51.42244 | 12.03309 | 2669 ft | 135 kts | 83° |
| 2026-05-06 22:19 | 51.42317 | 12.04804 | 2488 ft | 135 kts | 83° |
| 2026-05-06 22:19 | 51.42391 | 12.06309 | 2315 ft | 135 kts | 83° |
| 2026-05-06 22:19 | 51.42463 | 12.07809 | 2128 ft | 135 kts | 83° |
| 2026-05-06 22:19 | 51.42536 | 12.09315 | 1949 ft | 136 kts | 83° |
| 2026-05-06 22:20 | 51.42609 | 12.10825 | 1769 ft | 136 kts | 84° |
| 2026-05-06 22:20 | 51.42681 | 12.12320 | 1590 ft | 137 kts | 84° |
| 2026-05-06 22:20 | 51.42754 | 12.13843 | 1412 ft | 137 kts | 84° |
| 2026-05-06 22:20 | 51.42827 | 12.15365 | 1226 ft | 137 kts | 84° |
| 2026-05-06 22:21 | 51.42900 | 12.16882 | 1045 ft | 136 kts | 84° |
| 2026-05-06 22:21 | 51.42972 | 12.18394 | 860 ft | 136 kts | 84° |
| 2026-05-06 22:21 | 51.43044 | 12.19911 | 683 ft | 136 kts | 84° |
| 2026-05-06 22:21 | 51.43115 | 12.21426 | 502 ft | 136 kts | 85° |
| 2026-05-06 22:22 | 51.43184 | 12.22860 | 433 ft | 113 kts | 85° |
| 2026-05-06 22:22 | 51.43230 | 12.23804 | 447 ft | 52 kts | 85° |
| 2026-05-06 22:22 | 51.43250 | 12.24255 | 433 ft | 34 kts | 86° |
| 2026-05-06 22:22 | 51.43225 | 12.24545 | 446 ft | 26 kts | 110° |
| 2026-05-06 22:23 | 51.43168 | 12.24749 | 448 ft | 18 kts | 115° |
| 2026-05-06 22:23 | 51.43112 | 12.24935 | 449 ft | 19 kts | 116° |
| 2026-05-06 22:23 | 51.43044 | 12.25107 | 449 ft | 18 kts | 160° |
| 2026-05-06 22:23 | 51.42919 | 12.25079 | 448 ft | 19 kts | 192° |
| 2026-05-06 22:24 | 51.42796 | 12.25032 | 454 ft | 17 kts | 194° |
| 2026-05-06 22:24 | 51.42694 | 12.24994 | 460 ft | 13 kts | 193° |
| 2026-05-06 22:24 | 51.42597 | 12.24956 | 463 ft | 22 kts | 194° |
| 2026-05-06 22:24 | 51.42433 | 12.24894 | 474 ft | 21 kts | 194° |
| 2026-05-06 22:25 | 51.42280 | 12.24834 | 479 ft | 22 kts | 193° |
| 2026-05-06 22:25 | 51.42139 | 12.24779 | 491 ft | 24 kts | 195° |
| 2026-05-06 22:25 | 51.41967 | 12.24715 | 488 ft | 23 kts | 194° |
| 2026-05-06 22:25 | 51.41817 | 12.24656 | 482 ft | 23 kts | 193° |
| 2026-05-06 22:26 | 51.41699 | 12.24609 | 479 ft | 17 kts | 198° |
| 2026-05-06 22:26 | 51.41651 | 12.24408 | 479 ft | 25 kts | 265° |
| 2026-05-06 22:26 | 51.41638 | 12.24169 | 479 ft | 24 kts | 268° |
| 2026-05-06 22:26 | 51.41627 | 12.23908 | 471 ft | 21 kts | 267° |
| 2026-05-06 22:27 | 51.41617 | 12.23684 | 473 ft | 21 kts | 266° |
| 2026-05-06 22:27 | 51.41611 | 12.23572 | 473 ft | 0 kts | 265° |
| 2026-05-06 22:27 | 51.41611 | 12.23568 | 473 ft | 0 kts | 265° |
| 2026-05-06 22:27 | 51.41611 | 12.23559 | 472 ft | 2 kts | 265° |
| 2026-05-06 22:28 | 51.41607 | 12.23477 | 471 ft | 10 kts | 265° |
| 2026-05-06 22:28 | 51.41600 | 12.23328 | 471 ft | 12 kts | 267° |
| 2026-05-06 22:28 | 51.41614 | 12.23152 | 469 ft | 20 kts | 283° |
| 2026-05-06 22:28 | 51.41653 | 12.22921 | 461 ft | 23 kts | 285° |
| 2026-05-06 22:29 | 51.41695 | 12.22682 | 450 ft | 22 kts | 285° |
| 2026-05-06 22:29 | 51.41732 | 12.22468 | 441 ft | 16 kts | 285° |
| 2026-05-06 22:29 | 51.41766 | 12.22265 | 429 ft | 19 kts | 285° |
| 2026-05-06 22:29 | 51.41803 | 12.22050 | 431 ft | 17 kts | 286° |
| 2026-05-06 22:30 | 51.41839 | 12.22002 | 426 ft | 6 kts | 1° |
| 2026-05-06 22:30 | 51.41872 | 12.22016 | 430 ft | 4 kts | 16° |
| 2026-05-06 22:30 | 51.41897 | 12.22027 | 429 ft | 3 kts | 15° |
| 2026-05-06 22:30 | 51.41908 | 12.22032 | 436 ft | 0 kts | 15° |